Time;durP1;ratioP1;P1;durP2;ratioP2;P2;SDS_P1;SDS_P2;PMS_P1;PMS_P2;Temp;Humidity;BMP_temperature;BMP_pressure;BME280_temperature;BME280_humidity;BME280_pressure;Samples;Min_cycle;Max_cycle;Signal;HPM_P1;HPM_P2
2022/06/17 00:00:55;;;;;;;4.70;4.30;;;-18.00;99.90;;;;;;5138708;27;20173;-69
2022/06/17 00:03:23;;;;;;;4.13;3.93;;;-15.40;99.90;;;;;;5138396;27;20162;-71
2022/06/17 00:05:50;;;;;;;5.83;3.80;;;-18.70;99.90;;;;;;5138393;27;20192;-65
2022/06/17 00:08:23;;;;;;;13.03;3.87;;;-17.30;99.90;;;;;;5138549;27;20165;-70
2022/06/17 00:10:49;;;;;;;3.70;3.50;;;-17.80;99.90;;;;;;5138401;27;20169;-73
2022/06/17 00:13:17;;;;;;;4.10;3.80;;;-17.70;99.90;;;;;;5137736;27;20176;-70
2022/06/17 00:15:45;;;;;;;4.77;4.20;;;-15.30;99.90;;;;;;5138327;27;20648;-70
2022/06/17 00:18:11;;;;;;;5.00;3.47;;;-15.50;99.90;;;;;;5138076;27;20189;-72
2022/06/17 00:20:37;;;;;;;4.40;4.10;;;-15.90;99.90;;;;;;5138226;27;20253;-70
2022/06/17 00:23:05;;;;;;;3.93;3.30;;;-16.20;99.90;;;;;;5137441;27;20248;-70
2022/06/17 00:25:36;;;;;;;7.00;4.30;;;-17.10;99.90;;;;;;5138106;27;20565;-71
2022/06/17 00:28:02;;;;;;;4.63;4.13;;;-11.90;99.90;;;;;;5138138;27;20166;-65
2022/06/17 00:30:31;;;;;;;4.47;4.07;;;-10.00;99.90;;;;;;5137991;27;20173;-64
2022/06/17 00:33:00;;;;;;;3.60;3.20;;;-10.00;99.90;;;;;;5137910;27;20165;-64
2022/06/17 00:35:31;;;;;;;6.20;5.33;;;-10.50;99.90;;;;;;5137493;27;20177;-64
2022/06/17 00:37:58;;;;;;;5.73;3.60;;;-9.30;99.90;;;;;;5137791;27;20197;-65
2022/06/17 00:40:26;;;;;;;5.90;4.87;;;-10.70;99.90;;;;;;5137702;27;20212;-64
2022/06/17 00:42:52;;;;;;;4.67;4.27;;;-12.80;99.90;;;;;;5137878;27;20602;-64
2022/06/17 00:45:28;;;;;;;4.33;4.00;;;-14.60;99.90;;;;;;5137734;27;20165;-66
2022/06/17 00:48:06;;;;;;;4.60;4.00;;;-15.40;99.90;;;;;;5137514;27;20169;-65
2022/06/17 00:50:45;;;;;;;5.27;4.73;;;-18.50;99.90;;;;;;5137548;27;20502;-67
2022/06/17 00:53:19;;;;;;;3.73;3.53;;;-16.30;99.90;;;;;;5137550;27;20185;-65
2022/06/17 00:56:20;;;;;;;5.03;4.20;;;-16.60;99.90;;;;;;5137625;27;20177;-66
2022/06/17 00:59:01;;;;;;;11.33;5.13;;;-14.80;99.90;;;;;;5137083;27;20212;-68
2022/06/17 01:01:31;;;;;;;4.27;3.87;;;-14.50;99.90;;;;;;5136995;27;20176;-71
2022/06/17 01:04:01;;;;;;;4.77;4.37;;;-16.00;99.90;;;;;;5136442;27;20165;-71
2022/06/17 01:06:33;;;;;;;4.47;4.07;;;-14.80;99.90;;;;;;5137310;27;20170;-73
2022/06/17 01:12:14;;;;;;;4.03;3.80;;;-11.30;99.90;;;;;;5137580;27;20523;-70
2022/06/17 01:14:41;;;;;;;5.83;5.30;;;-12.00;99.90;;;;;;5137275;27;20157;-69
2022/06/17 01:17:10;;;;;;;4.57;4.20;;;-12.30;99.90;;;;;;5136815;27;20599;-70
2022/06/17 01:19:40;;;;;;;6.03;5.63;;;-17.00;99.90;;;;;;5137000;27;20241;-66
2022/06/17 01:22:20;;;;;;;4.13;3.93;;;-18.50;99.90;;;;;;5137131;27;20448;-70
2022/06/17 01:24:49;;;;;;;4.23;3.93;;;-15.80;99.90;;;;;;5137070;27;20161;-70
2022/06/17 01:27:21;;;;;;;4.63;4.27;;;-15.20;99.90;;;;;;5136906;27;20240;-74
2022/06/17 01:29:48;;;;;;;5.13;4.73;;;-14.40;99.90;;;;;;5135659;27;20169;-71
2022/06/17 01:32:16;;;;;;;5.27;4.30;;;-15.80;99.90;;;;;;5136802;27;20165;-65
2022/06/17 01:34:43;;;;;;;4.40;4.07;;;-14.80;99.90;;;;;;5136843;27;20204;-65
2022/06/17 01:37:10;;;;;;;3.97;3.73;;;-15.00;99.90;;;;;;5136730;27;20181;-70
2022/06/17 01:39:36;;;;;;;7.30;4.70;;;-15.40;99.90;;;;;;5135894;27;20349;-68
2022/06/17 01:42:02;;;;;;;5.20;3.97;;;-15.00;99.90;;;;;;5136794;27;20165;-66
2022/06/17 01:44:35;;;;;;;4.83;4.43;;;-16.90;99.90;;;;;;5136556;27;20561;-66
2022/06/17 01:47:05;;;;;;;4.70;4.30;;;-12.90;99.90;;;;;;5136844;27;20489;-66
2022/06/17 01:49:41;;;;;;;6.17;4.13;;;-19.40;99.90;;;;;;5136718;27;20157;-64
2022/06/17 01:52:26;;;;;;;10.90;4.13;;;-22.60;99.90;;;;;;5136631;27;20568;-68
2022/06/17 01:55:06;;;;;;;4.27;3.97;;;-23.10;99.90;;;;;;5136732;27;20175;-67
2022/06/17 01:57:37;;;;;;;7.20;4.57;;;-14.80;99.90;;;;;;5136366;27;20597;-70
2022/06/17 02:00:24;;;;;;;4.63;4.23;;;-17.50;99.90;;;;;;5136445;27;20158;-64
2022/06/17 02:02:55;;;;;;;4.77;4.43;;;-14.20;99.90;;;;;;5135304;28;20169;-65
2022/06/17 02:05:24;;;;;;;3.93;3.63;;;-15.80;99.90;;;;;;5136336;28;20632;-64
2022/06/17 02:07:54;;;;;;;5.43;4.13;;;-20.50;99.90;;;;;;5136044;27;20168;-66
2022/06/17 02:10:22;;;;;;;8.20;4.47;;;-21.50;99.90;;;;;;5136576;27;20169;-66
2022/06/17 02:12:48;;;;;;;5.37;4.73;;;-20.30;99.90;;;;;;5135409;28;20165;-65
2022/06/17 02:15:15;;;;;;;4.90;4.47;;;-20.20;99.90;;;;;;5136356;27;20166;-71
2022/06/17 02:17:45;;;;;;;5.97;4.27;;;-21.20;99.90;;;;;;5136299;28;20197;-71
2022/06/17 02:20:14;;;;;;;5.20;4.07;;;-21.40;99.90;;;;;;5138602;27;20188;-72
2022/06/17 02:22:40;;;;;;;4.30;4.00;;;-21.00;99.90;;;;;;5140640;27;20162;-71
2022/06/17 02:25:23;;;;;;;5.70;4.80;;;-22.70;99.90;;;;;;5140599;27;20236;-69
2022/06/17 02:27:54;;;;;;;4.90;3.57;;;-18.90;99.90;;;;;;5140035;27;20173;-73
2022/06/17 02:30:20;;;;;;;4.63;4.33;;;-23.40;99.90;;;;;;5140505;27;20168;-70
2022/06/17 02:32:47;;;;;;;4.43;4.03;;;-26.60;99.90;;;;;;5140291;27;20173;-71
2022/06/17 02:35:33;;;;;;;4.77;4.37;;;-23.10;99.90;;;;;;5139189;27;20593;-65
2022/06/17 02:37:59;;;;;;;6.20;4.43;;;-24.80;99.90;;;;;;5139733;27;20244;-67
2022/06/17 02:40:30;;;;;;;4.17;3.73;;;-20.50;99.90;;;;;;5140199;27;20161;-68
2022/06/17 02:42:59;;;;;;;4.40;4.00;;;-20.60;99.90;;;;;;5140144;27;20476;-70
2022/06/17 02:45:27;;;;;;;4.27;4.07;;;-24.40;99.90;;;;;;5140145;27;20258;-73
2022/06/17 02:47:53;;;;;;;4.67;4.37;;;-19.80;99.90;;;;;;5140009;27;20179;-68
2022/06/17 02:50:25;;;;;;;5.00;4.50;;;-18.80;99.90;;;;;;5138906;27;20169;-73
2022/06/17 02:52:53;;;;;;;5.70;4.33;;;-25.30;99.90;;;;;;5139933;27;20184;-66
2022/06/17 02:55:30;;;;;;;4.43;4.10;;;-19.20;99.90;;;;;;5140049;27;20189;-73
2022/06/17 02:58:26;;;;;;;4.53;4.17;;;-20.10;99.90;;;;;;5139514;27;20249;-71
2022/06/17 03:00:52;;;;;;;4.43;4.13;;;-19.40;99.90;;;;;;5131019;27;20183;-67
2022/06/17 03:03:20;;;;;;;8.13;5.10;;;-22.10;99.90;;;;;;5139820;27;20176;-70
2022/06/17 03:05:47;;;;;;;3.57;3.37;;;-18.70;99.90;;;;;;5140037;27;20184;-64
2022/06/17 03:08:21;;;;;;;4.07;3.77;;;-20.60;99.90;;;;;;5139773;27;20194;-70
2022/06/17 03:10:48;;;;;;;6.73;4.20;;;-21.80;99.90;;;;;;5139753;27;20166;-68
2022/06/17 03:13:19;;;;;;;3.73;3.37;;;-23.90;99.90;;;;;;5139538;27;20158;-71
2022/06/17 03:15:48;;;;;;;4.33;4.13;;;-23.20;99.90;;;;;;5139719;27;20169;-69
2022/06/17 03:18:14;;;;;;;7.77;4.07;;;-25.20;99.90;;;;;;5139697;27;20203;-68
2022/06/17 03:20:42;;;;;;;6.43;4.57;;;-26.10;99.90;;;;;;5139365;27;20169;-69
2022/06/17 03:23:16;;;;;;;3.93;3.63;;;-21.90;99.90;;;;;;5139399;27;20204;-69
2022/06/17 03:25:57;;;;;;;4.30;3.90;;;-26.30;99.90;;;;;;5138916;27;20158;-69
2022/06/17 03:28:30;;;;;;;4.27;3.90;;;-22.40;99.90;;;;;;5139338;27;20163;-69
2022/06/17 03:31:07;;;;;;;3.80;3.57;;;-21.80;99.90;;;;;;5138209;27;20248;-67
2022/06/17 03:34:12;;;;;;;5.13;4.73;;;-19.50;99.90;;;;;;5139381;27;20165;-73
2022/06/17 03:37:01;;;;;;;3.87;3.57;;;-19.50;99.90;;;;;;5138837;27;20535;-67
2022/06/17 03:39:43;;;;;;;4.93;3.77;;;-18.90;99.90;;;;;;5138925;27;20272;-70
2022/06/17 03:42:13;;;;;;;4.33;3.93;;;-21.90;99.90;;;;;;5137865;27;20592;-69
2022/06/17 03:44:50;;;;;;;4.00;3.70;;;-21.40;99.90;;;;;;5138922;27;20249;-67
2022/06/17 03:47:23;;;;;;;3.83;3.47;;;-21.00;99.90;;;;;;5138916;27;20222;-66
2022/06/17 03:50:02;;;;;;;3.67;3.37;;;-20.20;99.90;;;;;;5138739;27;20196;-67
2022/06/17 03:52:52;;;;;;;3.63;3.40;;;-20.70;99.90;;;;;;5137822;27;20221;-68
2022/06/17 03:55:19;;;;;;;4.57;3.37;;;-19.80;99.90;;;;;;5138547;27;20178;-68
2022/06/17 03:57:50;;;;;;;5.43;3.60;;;-25.20;99.90;;;;;;5138527;27;20200;-72
2022/06/17 04:00:39;;;;;;;4.10;3.80;;;-21.40;99.90;;;;;;5138616;27;20214;-66
2022/06/17 04:03:13;;;;;;;4.70;3.83;;;-27.00;99.90;;;;;;5134923;27;20209;-66
2022/06/17 04:05:41;;;;;;;4.60;3.97;;;-27.80;99.90;;;;;;5138457;27;20177;-67
2022/06/17 04:08:10;;;;;;;4.67;4.13;;;-31.20;99.90;;;;;;5138590;27;20190;-66
2022/06/17 04:10:36;;;;;;;6.07;4.10;;;-26.90;99.90;;;;;;5138111;27;20172;-67
2022/06/17 04:13:02;;;;;;;5.17;3.43;;;-29.30;99.90;;;;;;5138437;27;20195;-69
2022/06/17 04:15:39;;;;;;;9.73;5.00;;;-20.70;99.90;;;;;;5138416;27;20201;-74
2022/06/17 04:18:05;;;;;;;6.10;3.30;;;-20.60;99.90;;;;;;5137233;27;20485;-69
2022/06/17 04:20:54;;;;;;;3.00;2.80;;;-20.50;99.90;;;;;;5138382;27;20184;-71
2022/06/17 04:23:26;;;;;;;13.10;4.43;;;-16.90;99.90;;;;;;5137374;27;20464;-65
2022/06/17 04:25:58;;;;;;;4.83;3.97;;;-16.20;99.90;;;;;;5137855;27;20166;-67
2022/06/17 04:28:30;;;;;;;3.73;3.43;;;-16.40;99.90;;;;;;5138255;27;20165;-66
2022/06/17 04:31:00;;;;;;;5.10;4.70;;;-16.90;99.90;;;;;;5138039;27;20200;-66
2022/06/17 04:33:27;;;;;;;5.00;4.07;;;-21.10;99.90;;;;;;5138077;27;20170;-68
2022/06/17 04:35:59;;;;;;;4.43;4.03;;;-21.10;99.90;;;;;;5137783;27;20181;-69
2022/06/17 04:38:28;;;;;;;3.63;3.43;;;-19.70;99.90;;;;;;5137570;27;20662;-71
2022/06/17 04:40:58;;;;;;;4.27;3.60;;;-32.00;99.90;;;;;;5137815;27;20169;-70
2022/06/17 04:43:40;;;;;;;3.73;3.43;;;-28.50;99.90;;;;;;5137757;27;20592;-68
2022/06/17 04:46:08;;;;;;;4.60;3.27;;;-30.20;99.90;;;;;;5137461;27;20177;-69
2022/06/17 04:48:35;;;;;;;6.80;3.43;;;-24.70;99.90;;;;;;5137733;27;20162;-69
2022/06/17 04:51:02;;;;;;;5.23;3.17;;;-23.60;99.90;;;;;;5137594;27;20176;-69
2022/06/17 04:53:30;;;;;;;3.23;3.00;;;-32.60;99.90;;;;;;5137388;27;20189;-65
2022/06/17 04:55:57;;;;;;;6.37;3.77;;;-31.70;99.90;;;;;;5137549;27;20644;-70
2022/06/17 04:58:25;;;;;;;3.90;3.30;;;-26.30;99.90;;;;;;5137461;27;20178;-73
2022/06/17 05:00:54;;;;;;;3.53;3.33;;;-25.70;99.90;;;;;;5137429;27;20161;-65
2022/06/17 05:03:27;;;;;;;4.40;3.00;;;-25.70;99.90;;;;;;5137534;27;20169;-71
2022/06/17 05:05:53;;;;;;;3.97;3.60;;;-26.60;99.90;;;;;;5136200;27;20545;-70
2022/06/17 05:08:30;;;;;;;4.17;3.03;;;-22.60;99.90;;;;;;5137193;27;20165;-71
2022/06/17 05:11:04;;;;;;;5.83;3.30;;;-24.20;99.90;;;;;;5137210;27;20731;-67
2022/06/17 05:13:43;;;;;;;3.07;2.80;;;-33.10;99.90;;;;;;5136252;27;20250;-70
2022/06/17 05:16:15;;;;;;;6.40;3.03;;;-27.90;99.90;;;;;;5137204;27;20161;-69
2022/06/17 05:18:41;;;;;;;4.17;3.23;;;-21.60;99.90;;;;;;5137130;27;20339;-70
2022/06/17 05:21:18;;;;;;;7.37;3.37;;;-23.90;99.90;;;;;;5136903;27;20193;-69
2022/06/17 05:23:45;;;;;;;5.77;2.60;;;-22.90;99.90;;;;;;5136766;27;20157;-64
2022/06/17 05:26:10;;;;;;;4.87;3.00;;;-18.80;99.90;;;;;;5137108;27;20242;-69
2022/06/17 05:28:36;;;;;;;6.13;3.03;;;-21.60;99.90;;;;;;5137077;27;20197;-66
2022/06/17 05:31:02;;;;;;;5.23;3.10;;;-27.60;99.90;;;;;;5137142;27;20176;-70
2022/06/17 05:33:28;;;;;;;5.47;2.90;;;-29.50;99.90;;;;;;5136934;27;20244;-69
2022/06/17 05:35:54;;;;;;;8.20;4.07;;;-24.40;99.90;;;;;;5136789;27;20174;-72
2022/06/17 05:38:20;;;;;;;3.83;2.90;;;-22.60;99.90;;;;;;5136373;27;20634;-67
2022/06/17 05:40:46;;;;;;;3.63;2.60;;;-24.90;99.90;;;;;;5137066;27;20165;-66
2022/06/17 05:43:12;;;;;;;4.80;2.87;;;-24.00;99.90;;;;;;5136802;27;20463;-68
2022/06/17 05:45:39;;;;;;;5.87;3.00;;;-24.20;99.90;;;;;;5137125;27;20189;-65
2022/06/17 05:48:05;;;;;;;10.17;4.50;;;-22.00;99.90;;;;;;5136636;27;20173;-66
2022/06/17 05:50:31;;;;;;;4.07;3.60;;;-16.30;99.80;;;;;;5136887;27;20210;-65
2022/06/17 05:53:06;;;;;;;7.13;3.73;;;-21.00;99.10;;;;;;5136221;27;20507;-69
2022/06/17 05:55:34;;;;;;;6.13;3.30;;;-19.40;99.90;;;;;;5136458;27;20647;-67
2022/06/17 05:58:00;;;;;;;9.40;4.10;;;-17.00;99.90;;;;;;5136579;27;20223;-66
2022/06/17 06:00:28;;;;;;;6.30;2.63;;;-19.30;99.90;;;;;;5136784;27;20161;-66
2022/06/17 06:02:58;;;;;;;3.33;2.77;;;-20.10;99.90;;;;;;5136630;27;20158;-68
2022/06/17 06:05:26;;;;;;;11.03;4.13;;;-16.20;99.90;;;;;;5135099;28;20169;-65
2022/06/17 06:07:52;;;;;;;8.30;3.63;;;-12.90;99.90;;;;;;5136460;28;20204;-66
2022/06/17 06:10:18;;;;;;;6.10;3.03;;;-13.50;99.60;;;;;;5135944;27;20169;-68
2022/06/17 06:12:53;;;;;;;5.83;3.23;;;-22.00;96.70;;;;;;5135305;27;20181;-68
2022/06/17 06:15:29;;;;;;;4.57;3.10;;;-12.90;99.50;;;;;;5136217;27;20198;-69
2022/06/17 06:17:55;;;;;;;4.03;3.60;;;-9.70;99.90;;;;;;5115542;28;20648;-66
2022/06/17 06:20:22;;;;;;;9.60;4.53;;;-13.10;99.80;;;;;;5133814;28;20173;-65
2022/06/17 06:22:47;;;;;;;10.30;3.90;;;-17.70;98.40;;;;;;5135964;27;20240;-66
2022/06/17 06:25:15;;;;;;;4.30;3.90;;;-15.70;99.00;;;;;;5135755;27;20240;-65
2022/06/17 06:27:41;;;;;;;4.53;3.30;;;-15.20;97.90;;;;;;5135279;28;20184;-67
2022/06/17 06:30:14;;;;;;;5.50;4.60;;;-18.30;97.50;;;;;;5135731;27;20166;-67
2022/06/17 06:32:47;;;;;;;9.83;7.80;;;-16.20;97.90;;;;;;5136159;27;20587;-68
2022/06/17 06:35:16;;;;;;;8.43;6.20;;;-17.50;96.80;;;;;;5135697;27;20430;-66
2022/06/17 06:37:42;;;;;;;14.07;3.67;;;-12.70;98.50;;;;;;5135138;27;20242;-68
2022/06/17 06:40:09;;;;;;;5.63;2.73;;;-15.10;97.30;;;;;;5132083;28;20162;-68
2022/06/17 06:42:39;;;;;;;3.50;3.30;;;-15.20;97.80;;;;;;5135299;27;20169;-70
2022/06/17 06:45:05;;;;;;;3.03;2.70;;;-14.70;97.20;;;;;;5135091;27;20170;-69
2022/06/17 06:47:31;;;;;;;4.53;2.70;;;-21.90;94.60;;;;;;5135323;27;20170;-68
2022/06/17 06:49:57;;;;;;;5.77;3.27;;;-16.00;96.50;;;;;;5135751;27;20166;-68
2022/06/17 06:52:23;;;;;;;5.00;2.67;;;-18.00;95.80;;;;;;5135873;27;20662;-67
2022/06/17 06:54:50;;;;;;;3.40;2.60;;;-20.30;95.30;;;;;;5135830;27;20184;-70
2022/06/17 06:57:16;;;;;;;8.87;2.50;;;-18.00;96.10;;;;;;5135997;27;20469;-69
2022/06/17 06:59:42;;;;;;;3.73;2.60;;;-15.50;96.60;;;;;;5135490;27;20192;-69
2022/06/17 07:02:09;;;;;;;10.67;3.57;;;-19.40;95.70;;;;;;5135396;27;20154;-69
2022/06/17 07:04:35;;;;;;;3.53;3.00;;;-13.10;97.20;;;;;;5135815;27;20158;-68
2022/06/17 07:07:00;;;;;;;6.90;3.47;;;-15.50;96.40;;;;;;5138582;27;20239;-67
2022/06/17 07:09:26;;;;;;;5.73;2.43;;;-20.90;94.90;;;;;;5138410;27;20173;-68
2022/06/17 07:11:52;;;;;;;9.70;3.17;;;-31.10;91.90;;;;;;5139727;27;20173;-67
2022/06/17 07:14:18;;;;;;;4.37;2.77;;;-20.80;95.00;;;;;;5139421;27;20572;-67
2022/06/17 07:16:43;;;;;;;3.60;2.50;;;-10.80;96.40;;;;;;5139470;27;20166;-67
2022/06/17 07:19:16;;;;;;;4.27;2.83;;;-23.00;92.50;;;;;;5138926;27;20204;-72
2022/06/17 07:21:42;;;;;;;7.57;4.00;;;-20.90;93.30;;;;;;5139600;27;20501;-67
2022/06/17 07:24:07;;;;;;;5.60;3.03;;;-15.80;95.10;;;;;;5139207;27;20187;-68
2022/06/17 07:26:33;;;;;;;4.00;3.10;;;-20.20;93.10;;;;;;5139408;27;20162;-66
2022/06/17 07:28:59;;;;;;;6.53;2.97;;;-19.90;92.80;;;;;;5139055;27;20227;-67
2022/06/17 07:31:25;;;;;;;8.10;2.93;;;-13.70;94.60;;;;;;5142967;27;20178;-65
2022/06/17 07:33:51;;;;;;;4.37;3.20;;;-14.10;94.10;;;;;;5137990;27;20641;-66
2022/06/17 07:41:52;;;;;;;2.53;2.33;;;18.60;99.90;;;;;;5139430;27;20505;-66
2022/06/17 07:44:19;;;;;;;9.07;2.90;;;21.80;99.90;;;;;;5137989;27;20513;-66
2022/06/17 07:46:45;;;;;;;3.30;3.00;;;21.60;99.90;;;;;;5138796;27;20214;-67
2022/06/17 07:49:11;;;;;;;3.07;2.43;;;-22.20;90.30;;;;;;5138726;27;20486;-65
2022/06/17 07:51:37;;;;;;;4.40;4.00;;;-14.00;92.40;;;;;;5138954;27;20160;-70
2022/06/17 07:54:03;;;;;;;5.97;3.47;;;-13.00;92.80;;;;;;5139678;27;20205;-67
2022/06/17 07:56:29;;;;;;;3.03;2.73;;;-13.40;92.10;;;;;;5145261;27;20478;-67
2022/06/17 07:58:58;;;;;;;6.13;2.70;;;-15.10;92.30;;;;;;5138553;27;20218;-66
2022/06/17 08:01:24;;;;;;;9.47;2.87;;;-15.00;91.80;;;;;;5137826;27;20244;-67
2022/06/17 08:03:50;;;;;;;5.17;3.23;;;-14.70;91.80;;;;;;5138628;27;20452;-68
2022/06/17 08:06:19;;;;;;;3.43;3.13;;;-17.00;91.80;;;;;;5138849;27;20180;-68
2022/06/17 08:08:45;;;;;;;4.47;3.63;;;-22.50;88.40;;;;;;5138758;27;20169;-69
2022/06/17 08:11:12;;;;;;;2.60;2.40;;;-23.30;88.20;;;;;;5138377;27;20249;-68
2022/06/17 08:13:38;;;;;;;3.13;2.50;;;-17.40;90.80;;;;;;5138582;27;20546;-69
2022/06/17 08:16:06;;;;;;;5.63;3.67;;;-19.90;88.80;;;;;;5137929;27;20170;-69
2022/06/17 08:18:33;;;;;;;5.03;2.93;;;-16.90;88.70;;;;;;5138035;27;20247;-69
2022/06/17 08:20:59;;;;;;;5.33;2.70;;;-18.80;88.20;;;;;;5137896;27;20519;-69
2022/06/17 08:23:25;;;;;;;4.03;3.20;;;-13.50;90.40;;;;;;5138355;27;20168;-68
2022/06/17 08:25:51;;;;;;;6.70;3.47;;;-19.10;85.30;;;;;;5137126;27;20165;-69
2022/06/17 08:28:18;;;;;;;2.47;2.27;;;-12.90;85.70;;;;;;5136901;27;20169;-68
2022/06/17 08:30:48;;;;;;;4.77;3.83;;;-13.60;85.80;;;;;;5137463;27;20719;-68
2022/06/17 08:33:15;;;;;;;4.67;3.00;;;-12.90;86.20;;;;;;5138103;27;20568;-69
2022/06/17 08:35:45;;;;;;;3.43;2.60;;;-14.70;82.60;;;;;;5137949;27;20180;-68
2022/06/17 08:38:21;;;;;;;3.70;2.90;;;-16.60;81.30;;;;;;5137818;27;20209;-70
2022/06/17 08:40:54;;;;;;;5.53;2.63;;;-13.80;82.10;;;;;;5136839;27;20168;-69
2022/06/17 08:43:41;;;;;;;4.10;2.47;;;-12.60;83.80;;;;;;5137760;27;20166;-69
2022/06/17 08:46:37;;;;;;;6.33;2.63;;;-22.20;77.50;;;;;;5137441;27;20188;-68
2022/06/17 08:49:12;;;;;;;5.60;2.67;;;24.10;97.20;;;;;;5136168;27;20473;-67
2022/06/17 08:51:37;;;;;;;6.97;3.63;;;24.10;97.10;;;;;;5136821;27;20503;-69
2022/06/17 08:54:40;;;;;;;5.77;3.70;;;24.20;97.80;;;;;;5137272;27;20189;-68
2022/06/17 08:57:43;;;;;;;12.77;2.87;;;24.10;96.70;;;;;;5136493;27;20478;-68
2022/06/17 09:00:14;;;;;;;3.83;2.20;;;24.00;96.60;;;;;;5137454;27;20179;-66
2022/06/17 09:03:19;;;;;;;5.63;4.20;;;24.00;95.30;;;;;;5137066;27;20576;-68
2022/06/17 09:05:57;;;;;;;3.50;2.17;;;25.00;94.50;;;;;;5137463;27;20180;-69
2022/06/17 09:08:44;;;;;;;4.13;2.10;;;23.80;94.30;;;;;;5137232;27;20201;-68
2022/06/17 09:11:47;;;;;;;3.80;1.70;;;22.60;92.70;;;;;;5137087;27;20162;-69
2022/06/17 09:14:18;;;;;;;3.17;2.37;;;24.30;92.50;;;;;;5137142;27;20212;-71
2022/06/17 09:16:52;;;;;;;3.70;1.93;;;24.40;93.30;;;;;;5137283;27;20193;-67
2022/06/17 09:19:26;;;;;;;5.87;2.30;;;24.50;92.80;;;;;;5136427;27;20594;-67
2022/06/17 09:21:54;;;;;;;3.37;1.93;;;24.40;91.90;;;;;;5136096;27;20169;-67
2022/06/17 09:24:28;;;;;;;2.63;2.43;;;23.30;90.60;;;;;;5137207;27;20162;-68
2022/06/17 09:27:03;;;;;;;6.33;1.93;;;25.10;93.20;;;;;;5137047;27;20443;-68
2022/06/17 09:29:50;;;;;;;2.93;1.60;;;25.40;92.40;;;;;;5135958;27;20165;-69
2022/06/17 09:32:31;;;;;;;2.47;2.20;;;25.40;91.80;;;;;;5137178;27;20196;-68
2022/06/17 09:35:06;;;;;;;2.10;1.73;;;25.30;91.20;;;;;;5137024;27;20596;-71
2022/06/17 09:37:57;;;;;;;4.80;1.90;;;25.30;91.80;;;;;;5136681;27;20188;-68
2022/06/17 09:40:49;;;;;;;1.97;1.80;;;25.00;90.90;;;;;;5136886;27;20212;-68
2022/06/17 09:43:29;;;;;;;3.07;1.90;;;24.90;90.90;;;;;;5128915;27;20246;-67
2022/06/17 09:46:42;;;;;;;1.60;1.47;;;24.70;90.00;;;;;;5136845;27;20210;-68
2022/06/17 09:49:32;;;;;;;3.13;1.50;;;24.60;88.40;;;;;;5130844;27;20207;-69
2022/06/17 09:52:33;;;;;;;3.10;1.70;;;24.60;89.30;;;;;;5136646;27;20560;-72
2022/06/17 09:55:11;;;;;;;3.80;1.77;;;24.70;90.40;;;;;;5133454;28;20177;-69
2022/06/17 09:57:36;;;;;;;3.43;1.60;;;25.70;90.00;;;;;;5136395;27;20203;-69
2022/06/17 10:00:21;;;;;;;3.17;1.67;;;25.80;89.40;;;;;;5136795;27;20189;-68
2022/06/17 10:03:16;;;;;;;2.37;2.23;;;25.90;91.20;;;;;;5136613;27;20165;-70
2022/06/17 10:05:54;;;;;;;3.80;1.43;;;25.80;90.00;;;;;;5136782;27;20173;-68
2022/06/17 10:08:39;;;;;;;5.23;2.10;;;22.90;90.10;;;;;;5136625;27;20176;-68
2022/06/17 10:11:26;;;;;;;3.10;2.30;;;26.30;91.10;;;;;;5136634;27;20189;-67
2022/06/17 10:14:29;;;;;;;1.70;1.60;;;26.10;90.90;;;;;;5136280;27;20218;-67
2022/06/17 10:20:41;;;;;;;3.53;1.60;;;25.80;90.70;;;;;;5136537;28;20179;-67
2022/06/17 10:23:31;;;;;;;3.67;1.53;;;25.80;89.90;;;;;;5141023;27;20188;-70
2022/06/17 10:26:08;;;;;;;1.63;1.50;;;25.60;87.00;;;;;;5149721;27;20565;-69
2022/06/17 10:28:53;;;;;;;2.40;1.90;;;25.50;87.00;;;;;;5137882;27;20252;-68
2022/06/17 10:31:38;;;;;;;1.57;1.47;;;24.70;86.30;;;;;;5136355;27;20448;-71
2022/06/17 10:34:13;;;;;;;2.20;1.63;;;27.00;88.90;;;;;;5132216;27;20173;-70
2022/06/17 10:36:40;;;;;;;2.37;1.70;;;27.10;88.30;;;;;;5131486;27;20189;-68
2022/06/17 10:39:10;;;;;;;4.07;1.83;;;27.10;87.40;;;;;;5129694;27;20268;-65
2022/06/17 10:41:37;;;;;;;2.47;2.27;;;27.00;88.90;;;;;;5138733;27;20176;-68
2022/06/17 10:44:07;;;;;;;1.83;1.70;;;27.00;85.40;;;;;;5134152;27;20261;-67
2022/06/17 10:46:39;;;;;;;3.93;2.33;;;27.10;84.20;;;;;;5144360;27;20157;-67
2022/06/17 10:49:26;;;;;;;1.40;1.20;;;26.90;84.70;;;;;;5139772;27;20188;-71
2022/06/17 10:51:54;;;;;;;1.97;1.53;;;26.90;86.20;;;;;;5139966;27;20170;-66
2022/06/17 10:54:30;;;;;;;3.20;1.80;;;27.00;86.20;;;;;;5139846;27;20165;-69
2022/06/17 10:57:09;;;;;;;2.03;1.50;;;26.70;85.30;;;;;;5139759;27;20165;-71
2022/06/17 10:59:41;;;;;;;4.13;1.80;;;26.50;85.30;;;;;;5139931;27;20201;-69
2022/06/17 11:02:30;;;;;;;3.17;1.53;;;26.50;84.80;;;;;;5138947;27;20174;-73
2022/06/17 11:05:05;;;;;;;1.93;1.77;;;27.50;85.10;;;;;;5139721;27;20184;-74
2022/06/17 11:07:31;;;;;;;2.30;2.10;;;27.30;84.50;;;;;;5135663;27;20184;-75
2022/06/17 11:10:05;;;;;;;6.00;2.13;;;27.10;85.40;;;;;;5136785;27;20515;-74
2022/06/17 11:12:35;;;;;;;1.33;1.23;;;27.10;84.70;;;;;;5137933;27;20173;-73
2022/06/17 11:15:06;;;;;;;3.53;2.73;;;28.10;85.80;;;;;;5137794;27;20177;-67
2022/06/17 11:17:44;;;;;;;2.47;1.90;;;28.30;83.60;;;;;;5135925;27;20181;-72
2022/06/17 11:20:23;;;;;;;3.17;2.70;;;28.00;84.40;;;;;;5138492;27;20173;-73
2022/06/17 11:22:59;;;;;;;3.10;1.40;;;26.90;84.50;;;;;;5136205;27;20193;-73
2022/06/17 11:25:36;;;;;;;4.17;1.87;;;27.40;82.00;;;;;;5138001;27;20176;-73
2022/06/17 11:28:24;;;;;;;2.23;1.77;;;-40.00;44.10;;;;;;5134667;27;20267;-73
2022/06/17 11:31:02;;;;;;;3.27;1.83;;;-33.30;48.70;;;;;;5138492;27;20177;-71
2022/06/17 11:33:33;;;;;;;2.93;1.87;;;-40.00;42.00;;;;;;5137739;27;20181;-70
2022/06/17 11:36:13;;;;;;;2.40;1.50;;;-33.30;43.50;;;;;;5137441;27;20169;-68
2022/06/17 11:38:39;;;;;;;3.40;2.40;;;-32.00;41.50;;;;;;5137148;27;20250;-68
2022/06/17 11:41:05;;;;;;;3.90;2.27;;;-27.30;46.20;;;;;;5138151;27;20252;-69
2022/06/17 11:43:38;;;;;;;3.67;2.03;;;-28.40;46.00;;;;;;5137878;27;20177;-68
2022/06/17 11:46:13;;;;;;;1.87;1.77;;;-36.20;44.50;;;;;;5137845;27;20207;-68
2022/06/17 11:48:42;;;;;;;1.93;1.83;;;-40.00;40.90;;;;;;5137711;27;20188;-68
2022/06/17 11:51:29;;;;;;;3.93;2.33;;;-35.70;42.60;;;;;;5136720;27;20174;-70
2022/06/17 11:54:05;;;;;;;1.50;1.40;;;-40.00;39.20;;;;;;5129106;27;20200;-69
2022/06/17 11:56:39;;;;;;;1.90;1.80;;;-40.00;39.80;;;;;;5137175;27;20173;-69
2022/06/17 11:59:13;;;;;;;2.13;2.00;;;-40.00;38.20;;;;;;5137853;27;20248;-68
2022/06/17 12:01:40;;;;;;;3.20;1.65;;;-40.00;34.90;;;;;;5137153;27;20553;-68
2022/06/17 12:04:34;;;;;;;1.52;1.33;;;-40.00;36.20;;;;;;5137850;27;20173;-68
2022/06/17 12:07:00;;;;;;;1.55;1.40;;;-36.30;35.50;;;;;;5137304;27;20222;-70
2022/06/17 12:09:36;;;;;;;2.42;1.67;;;-40.00;33.20;;;;;;5125541;27;20498;-68
2022/06/17 12:12:09;;;;;;;1.90;1.80;;;-40.00;32.90;;;;;;5136178;27;20168;-69
2022/06/17 12:14:55;;;;;;;2.25;1.25;;;-36.60;34.40;;;;;;5136300;27;20177;-70
2022/06/17 12:17:23;;;;;;;1.50;1.42;;;-31.10;34.20;;;;;;5137277;27;20180;-68
2022/06/17 12:19:48;;;;;;;3.03;1.63;;;-22.20;38.60;;;;;;5137095;27;20646;-69
2022/06/17 12:22:40;;;;;;;4.03;2.25;;;-32.60;33.90;;;;;;5137238;27;20170;-69
2022/06/17 12:25:16;;;;;;;1.77;1.67;;;-5.90;44.10;;;;;;5131781;27;20665;-70
2022/06/17 12:27:57;;;;;;;1.63;1.52;;;-2.00;46.00;;;;;;5137188;27;20616;-70
2022/06/17 12:30:36;;;;;;;1.40;1.40;;;2.10;46.80;;;;;;5136443;27;20504;-69
2022/06/17 12:33:07;;;;;;;2.17;1.60;;;3.00;48.90;;;;;;5136007;27;20204;-69
2022/06/17 12:35:43;;;;;;;2.58;1.65;;;0.90;49.30;;;;;;5135135;27;20204;-74
2022/06/17 12:38:27;;;;;;;1.35;1.30;;;1.70;46.10;;;;;;5136682;27;20212;-70
2022/06/17 12:41:03;;;;;;;2.67;2.47;;;5.70;47.40;;;;;;5136273;27;20193;-69
2022/06/17 12:43:43;;;;;;;2.45;1.58;;;4.20;47.90;;;;;;5127162;27;20452;-70
2022/06/17 12:46:49;;;;;;;2.90;2.08;;;2.10;46.50;;;;;;5136544;27;20193;-70
2022/06/17 12:55:16;;;;;;;3.28;1.52;;;5.50;46.50;;;;;;5136218;27;20184;-71
2022/06/17 12:58:13;;;;;;;4.07;1.75;;;9.70;48.20;;;;;;5136095;27;20169;-71
2022/06/17 13:00:51;;;;;;;2.63;2.28;;;10.10;47.00;;;;;;5136950;27;20604;-74
2022/06/17 13:03:28;;;;;;;5.97;1.70;;;11.90;47.50;;;;;;5132775;27;20161;-69
2022/06/17 13:05:57;;;;;;;4.47;1.77;;;13.40;49.70;;;;;;5138454;27;20172;-77
2022/06/17 13:09:12;;;;;;;2.78;1.40;;;14.90;47.60;;;;;;5135311;27;20664;-70
2022/06/17 13:11:44;;;;;;;1.67;1.65;;;15.40;49.70;;;;;;5110281;27;20188;-74
2022/06/17 13:14:22;;;;;;;4.45;1.90;;;16.90;46.50;;;;;;5135494;27;20600;-71
2022/06/17 13:16:59;;;;;;;2.88;1.92;;;16.00;46.80;;;;;;5134233;27;20672;-72
2022/06/17 13:19:46;;;;;;;2.40;2.20;;;16.20;47.00;;;;;;5135349;27;20185;-70
2022/06/17 13:22:22;;;;;;;3.60;2.50;;;15.60;46.50;;;;;;5134935;27;20641;-73
2022/06/17 13:25:24;;;;;;;4.55;2.67;;;14.50;43.80;;;;;;5135660;27;20480;-70
2022/06/17 13:28:17;;;;;;;1.50;1.50;;;14.60;44.60;;;;;;5127707;27;20222;-71
2022/06/17 13:30:49;;;;;;;6.07;1.80;;;15.90;46.70;;;;;;5136761;27;20589;-75